Time;durP1;ratioP1;P1;durP2;ratioP2;P2;SDS_P1;SDS_P2;PMS_P1;PMS_P2;Temp;Humidity;BMP_temperature;BMP_pressure;BME280_temperature;BME280_humidity;BME280_pressure;Samples;Min_cycle;Max_cycle;Signal;HPM_P1;HPM_P2
2022/09/07 00:01:43;;;;;;;6.97;4.70;;;;;;;;;;4934446;29;20023;-80
2022/09/07 00:04:09;;;;;;;6.25;4.13;;;;;;;;;;4917385;29;20036;-79
2022/09/07 00:06:35;;;;;;;6.40;4.72;;;;;;;;;;4917516;29;20023;-79
2022/09/07 00:09:02;;;;;;;5.70;4.20;;;;;;;;;;4934379;29;20032;-78
2022/09/07 00:11:28;;;;;;;9.32;5.50;;;;;;;;;;4917625;29;20091;-81
2022/09/07 00:13:55;;;;;;;6.35;4.20;;;;;;;;;;4936683;29;20532;-80
2022/09/07 00:16:23;;;;;;;9.65;5.78;;;;;;;;;;4945007;29;20032;-80
2022/09/07 00:18:49;;;;;;;7.60;3.97;;;;;;;;;;4921733;29;20489;-79
2022/09/07 00:21:16;;;;;;;8.57;5.32;;;;;;;;;;4938824;29;20028;-79
2022/09/07 00:23:43;;;;;;;6.60;4.25;;;;;;;;;;4921814;29;20123;-79
2022/09/07 00:26:11;;;;;;;7.22;5.10;;;;;;;;;;4922088;29;20436;-79
2022/09/07 00:28:38;;;;;;;12.15;4.20;;;;;;;;;;4921896;29;20383;-80
2022/09/07 00:31:08;;;;;;;9.25;4.47;;;;;;;;;;4939022;29;20020;-81
2022/09/07 00:33:34;;;;;;;7.30;4.30;;;;;;;;;;4938708;29;20445;-78
2022/09/07 00:36:01;;;;;;;7.70;5.03;;;;;;;;;;4938520;29;20024;-80
2022/09/07 00:38:27;;;;;;;6.72;4.85;;;;;;;;;;4921376;29;20499;-81
2022/09/07 00:40:54;;;;;;;6.07;4.15;;;;;;;;;;4938679;29;20024;-80
2022/09/07 00:43:34;;;;;;;6.65;5.05;;;;;;;;;;4938192;29;20497;-79
2022/09/07 00:46:01;;;;;;;6.38;4.18;;;;;;;;;;4921413;29;20027;-81
2022/09/07 00:48:33;;;;;;;7.50;5.13;;;;;;;;;;4921465;29;20042;-80
2022/09/07 00:51:02;;;;;;;7.22;4.40;;;;;;;;;;4924894;29;20020;-80
2022/09/07 00:53:34;;;;;;;5.10;3.92;;;;;;;;;;4939952;29;20032;-80
2022/09/07 00:56:00;;;;;;;8.00;4.30;;;;;;;;;;4921464;29;20449;-80
2022/09/07 00:58:27;;;;;;;8.60;3.90;;;;;;;;;;4938399;29;20489;-80
2022/09/07 01:00:54;;;;;;;6.97;4.22;;;;;;;;;;4921357;29;20027;-80
2022/09/07 01:03:28;;;;;;;9.65;4.28;;;;;;;;;;4920995;29;20028;-79
2022/09/07 01:06:04;;;;;;;7.30;4.60;;;;;;;;;;4921254;29;20038;-80
2022/09/07 01:08:31;;;;;;;5.75;4.10;;;;;;;;;;4920931;29;20063;-79
2022/09/07 01:10:58;;;;;;;7.43;4.45;;;;;;;;;;4937833;29;20064;-79
2022/09/07 01:13:24;;;;;;;10.48;4.70;;;;;;;;;;4920743;29;20028;-79
2022/09/07 01:16:06;;;;;;;6.25;4.35;;;;;;;;;;4920801;29;20051;-79
2022/09/07 01:18:38;;;;;;;6.78;4.45;;;;;;;;;;4920770;29;20035;-79
2022/09/07 01:21:23;;;;;;;7.75;4.75;;;;;;;;;;4920603;29;20023;-79
2022/09/07 01:24:07;;;;;;;6.57;4.50;;;;;;;;;;4937748;29;20083;-78
2022/09/07 01:26:52;;;;;;;7.60;4.68;;;;;;;;;;4920676;29;20043;-79
2022/09/07 01:29:37;;;;;;;7.50;4.43;;;;;;;;;;4920640;29;20405;-80
2022/09/07 01:32:09;;;;;;;9.63;4.78;;;;;;;;;;4922610;29;20038;-79
2022/09/07 01:34:37;;;;;;;8.43;5.53;;;;;;;;;;4920425;29;20023;-79
2022/09/07 01:37:03;;;;;;;8.27;5.47;;;;;;;;;;4920533;29;20028;-79
2022/09/07 01:39:36;;;;;;;7.85;5.47;;;;;;;;;;4937441;29;20038;-79
2022/09/07 01:42:09;;;;;;;9.65;4.63;;;;;;;;;;4920321;29;20082;-77
2022/09/07 01:44:46;;;;;;;9.55;5.97;;;;;;;;;;4920265;29;20473;-79
2022/09/07 01:47:15;;;;;;;9.20;5.68;;;;;;;;;;4937383;29;20024;-79
2022/09/07 01:49:41;;;;;;;10.40;5.80;;;;;;;;;;4920104;29;20135;-79
2022/09/07 01:52:26;;;;;;;9.63;4.40;;;;;;;;;;4920209;29;20501;-79
2022/09/07 01:54:59;;;;;;;8.50;4.40;;;;;;;;;;4920436;29;20115;-79
2022/09/07 01:57:28;;;;;;;8.23;5.25;;;;;;;;;;4920185;29;20040;-80
2022/09/07 02:00:08;;;;;;;8.55;5.55;;;;;;;;;;4920184;29;20034;-79
2022/09/07 02:02:40;;;;;;;9.68;5.25;;;;;;;;;;4919819;29;20031;-79
2022/09/07 02:05:12;;;;;;;7.05;5.35;;;;;;;;;;4920171;29;20055;-79
2022/09/07 02:07:46;;;;;;;7.10;4.90;;;;;;;;;;4919985;29;20040;-79
2022/09/07 02:10:18;;;;;;;12.25;5.57;;;;;;;;;;4921646;29;20028;-80
2022/09/07 02:12:51;;;;;;;8.57;4.88;;;;;;;;;;4924914;29;20036;-81
2022/09/07 02:15:30;;;;;;;9.00;6.07;;;;;;;;;;4919866;29;20028;-79
2022/09/07 02:18:02;;;;;;;7.82;5.40;;;;;;;;;;4919533;29;20090;-78
2022/09/07 02:20:31;;;;;;;7.70;5.13;;;;;;;;;;4919439;29;20609;-79
2022/09/07 02:22:59;;;;;;;7.82;5.50;;;;;;;;;;4919503;29;20027;-79
2022/09/07 02:25:28;;;;;;;7.72;5.32;;;;;;;;;;4919526;29;20074;-79
2022/09/07 02:27:58;;;;;;;8.95;5.35;;;;;;;;;;4936650;29;20107;-79
2022/09/07 02:30:24;;;;;;;10.00;6.35;;;;;;;;;;4936354;29;20038;-79
2022/09/07 02:32:51;;;;;;;6.40;4.70;;;;;;;;;;4936538;29;20043;-79
2022/09/07 15:29:02;;;;;;;7.05;4.35;;;;;;;;;;3052997;23;20090;31
2022/09/07 15:31:32;;;;;;;9.77;5.03;;;;;;;;;;4887414;23;20056;-93
2022/09/07 17:33:19;;;;;;;9.43;5.10;;;;;;;;;;4942121;23;20060;-94
2022/09/07 17:35:46;;;;;;;8.30;4.72;;;;;;;;;;4890628;29;20036;-95
2022/09/07 17:40:48;;;;;;;8.77;5.45;;;;;;;;;;5088416;23;20196;-96
2022/09/07 17:43:47;;;;;;;11.82;6.00;;;;;;;;;;4891852;29;20145;-95
2022/09/07 17:49:13;;;;;;;7.28;3.97;;;;;;;;;;5761464;23;20063;-93
2022/09/07 17:55:07;;;;;;;;;;;;;;;;;;;;;
2022/09/07 17:57:51;;;;;;;8.48;4.82;;;;;;;;;;4904349;29;19990;-94
2022/09/07 18:00:20;;;;;;;6.03;4.47;;;;;;;;;;4890068;29;20036;-96
2022/09/07 18:02:47;;;;;;;6.30;5.05;;;;;;;;;;4892173;29;20056;-92
2022/09/07 18:07:57;;;;;;;9.35;5.05;;;;;;;;;;4896471;29;20037;-95
2022/09/07 18:10:29;;;;;;;11.57;5.88;;;;;;;;;;4886696;29;20084;-95
2022/09/07 18:12:58;;;;;;;10.10;5.50;;;;;;;;;;4891488;29;20017;-93
2022/09/07 18:15:24;;;;;;;11.90;5.28;;;;;;;;;;4887824;29;20021;-93
2022/09/07 18:20:50;;;;;;;13.85;6.10;;;;;;;;;;5019273;23;20079;-94
2022/09/07 18:23:22;;;;;;;9.68;5.38;;;;;;;;;;4896900;29;20096;-93
2022/09/07 18:28:39;;;;;;;12.20;5.90;;;;;;;;;;5109821;23;20120;-94
2022/09/07 18:31:19;;;;;;;7.82;5.85;;;;;;;;;;4899075;29;20040;-94
2022/09/07 18:33:45;;;;;;;10.27;6.38;;;;;;;;;;4901111;29;20036;-95
2022/09/07 18:36:12;;;;;;;13.45;5.32;;;;;;;;;;4894431;29;20024;-94
2022/09/07 18:38:38;;;;;;;9.02;6.28;;;;;;;;;;4924132;23;20109;-94
2022/09/07 18:41:14;;;;;;;9.40;6.72;;;;;;;;;;4946019;23;20057;-95
2022/09/07 18:43:55;;;;;;;7.95;6.03;;;;;;;;;;4888104;29;20052;-94
2022/09/07 18:46:23;;;;;;;11.25;6.70;;;;;;;;;;4887304;29;20123;-94
2022/09/07 18:49:12;;;;;;;11.38;6.50;;;;;;;;;;4889135;29;20013;-95
2022/09/07 18:51:44;;;;;;;10.07;6.22;;;;;;;;;;4954182;23;20104;-94
2022/09/07 18:54:13;;;;;;;10.18;6.95;;;;;;;;;;4901093;29;20064;-95
2022/09/07 18:56:39;;;;;;;10.13;6.38;;;;;;;;;;4886681;29;20029;-92
2022/09/07 18:59:09;;;;;;;8.80;6.15;;;;;;;;;;4887326;29;20044;-93
2022/09/07 19:01:47;;;;;;;13.82;7.03;;;;;;;;;;4889126;29;20040;-93
2022/09/07 19:04:34;;;;;;;10.95;7.05;;;;;;;;;;4887789;29;20040;-92
2022/09/07 19:07:14;;;;;;;10.85;7.57;;;;;;;;;;4918277;23;20053;-95
2022/09/07 19:12:41;;;;;;;10.25;7.20;;;;;;;;;;4883066;29;20060;-94
2022/09/07 19:15:07;;;;;;;12.48;7.28;;;;;;;;;;4887536;29;20135;-93
2022/09/07 19:17:33;;;;;;;9.85;6.72;;;;;;;;;;4887320;29;20039;-94
2022/09/07 19:19:59;;;;;;;12.68;7.53;;;;;;;;;;4886190;29;20096;-94
2022/09/07 19:22:26;;;;;;;11.68;7.20;;;;;;;;;;4886778;29;20088;-93
2022/09/07 19:24:52;;;;;;;9.85;6.88;;;;;;;;;;4888421;29;20127;-93
2022/09/07 19:27:18;;;;;;;14.02;7.75;;;;;;;;;;4892686;29;20029;-94
2022/09/07 19:29:44;;;;;;;12.07;7.55;;;;;;;;;;4886885;29;20033;-94
2022/09/07 19:32:11;;;;;;;11.13;7.88;;;;;;;;;;4904158;29;20031;-93
2022/09/07 19:37:44;;;;;;;16.35;8.48;;;;;;;;;;4906052;29;20083;-93
2022/09/07 19:45:27;;;;;;;12.57;8.18;;;;;;;;;;5005737;23;20147;-91
2022/09/07 19:47:56;;;;;;;11.55;7.78;;;;;;;;;;4898629;29;20096;-94
2022/09/07 19:51:00;;;;;;;12.48;8.23;;;;;;;;;;4893856;29;20537;-91
2022/09/07 19:53:27;;;;;;;13.07;8.60;;;;;;;;;;4897448;29;20062;-90
2022/09/07 19:56:27;;;;;;;11.05;7.97;;;;;;;;;;4894275;29;20021;-92
2022/09/07 20:02:01;;;;;;;;;;;;;;;;;;4911426;29;20088;-96
2022/09/07 20:04:49;;;;;;;9.38;7.22;;;;;;;;;;4892174;29;19918;-95
2022/09/07 20:10:25;;;;;;;11.13;8.18;;;;;;;;;;4911496;29;20043;-96
2022/09/07 20:13:17;;;;;;;12.73;7.97;;;;;;;;;;4891461;29;20060;-93
2022/09/07 20:16:20;;;;;;;16.38;7.90;;;;;;;;;;4818345;29;20065;-93
2022/09/07 20:19:17;;;;;;;12.82;8.88;;;;;;;;;;4822039;29;20073;-93
2022/09/07 20:22:06;;;;;;;11.88;8.45;;;;;;;;;;4826561;29;20038;-90
2022/09/07 20:27:38;;;;;;;13.05;9.32;;;;;;;;;;4910698;23;20060;-91
2022/09/07 20:30:04;;;;;;;13.23;8.70;;;;;;;;;;4888094;29;20048;-96
2022/09/07 20:32:30;;;;;;;10.18;8.05;;;;;;;;;;4891039;29;20032;-92
2022/09/07 20:34:57;;;;;;;13.57;7.80;;;;;;;;;;4891527;29;20124;-90
2022/09/07 20:40:32;;;;;;;11.40;8.10;;;;;;;;;;4889642;29;20409;-95
2022/09/07 20:45:50;;;;;;;10.50;7.88;;;;;;;;;;4910985;29;20080;-93
2022/09/07 20:48:19;;;;;;;13.98;8.10;;;;;;;;;;4895908;29;20039;-93
2022/09/07 20:50:53;;;;;;;15.25;7.70;;;;;;;;;;4898266;29;20466;-92
2022/09/07 20:53:28;;;;;;;10.88;7.72;;;;;;;;;;4893183;29;20033;-95
2022/09/07 20:56:32;;;;;;;14.27;8.43;;;;;;;;;;4898243;29;20033;-91
2022/09/07 20:59:29;;;;;;;13.60;7.93;;;;;;;;;;4896899;29;20037;-92
2022/09/07 21:01:56;;;;;;;12.57;8.23;;;;;;;;;;4908814;29;20033;-94
2022/09/07 21:04:34;;;;;;;10.85;8.20;;;;;;;;;;4891129;29;20048;-95
2022/09/07 21:07:00;;;;;;;17.27;8.50;;;;;;;;;;4892129;29;20063;-92
2022/09/07 21:09:40;;;;;;;11.45;7.78;;;;;;;;;;4897157;29;20033;-92
2022/09/07 21:15:28;;;;;;;13.52;8.57;;;;;;;;;;4951258;23;20172;-92
2022/09/07 21:17:54;;;;;;;10.82;8.45;;;;;;;;;;4914492;29;20048;-90
2022/09/07 21:23:34;;;;;;;11.20;8.95;;;;;;;;;;4926519;29;20039;-93
2022/09/07 21:26:01;;;;;;;13.68;9.02;;;;;;;;;;4909312;29;20114;-92
2022/09/07 21:28:30;;;;;;;11.65;8.15;;;;;;;;;;4908921;29;20036;-91
2022/09/07 21:30:57;;;;;;;11.35;8.07;;;;;;;;;;4912257;29;20076;-96
2022/09/07 21:33:24;;;;;;;10.25;7.95;;;;;;;;;;4909170;29;20538;-92
2022/09/07 21:35:53;;;;;;;13.23;8.93;;;;;;;;;;4908815;29;20114;-94
2022/09/07 21:38:20;;;;;;;12.02;8.52;;;;;;;;;;4911775;29;20040;-92
2022/09/07 21:40:58;;;;;;;12.43;7.95;;;;;;;;;;4911484;29;20035;-93
2022/09/07 21:43:24;;;;;;;11.68;8.32;;;;;;;;;;4909056;29;20012;-92
2022/09/07 21:46:00;;;;;;;16.17;8.52;;;;;;;;;;4910476;29;20052;-96
2022/09/07 21:48:33;;;;;;;12.32;8.30;;;;;;;;;;4933762;29;20028;-92
2022/09/07 21:51:05;;;;;;;11.50;7.93;;;;;;;;;;4913977;29;20031;-93
2022/09/07 21:53:31;;;;;;;12.55;8.93;;;;;;;;;;4910789;29;20032;-93
2022/09/07 21:58:46;;;;;;;12.02;8.93;;;;;;;;;;4912421;29;20055;-93
2022/09/07 22:01:28;;;;;;;12.07;8.25;;;;;;;;;;4906843;29;20043;-92
2022/09/07 22:04:07;;;;;;;13.30;8.93;;;;;;;;;;4908469;29;20178;-91
2022/09/07 22:06:52;;;;;;;11.30;8.88;;;;;;;;;;4910784;29;20044;-93
2022/09/07 22:09:18;;;;;;;12.82;9.00;;;;;;;;;;4908345;29;20025;-93
2022/09/07 22:15:10;;;;;;;14.90;9.15;;;;;;;;;;4925224;29;20446;-95
2022/09/07 22:20:38;;;;;;;11.15;8.52;;;;;;;;;;4906211;29;20075;-92
2022/09/07 22:23:17;;;;;;;14.57;9.32;;;;;;;;;;4888989;29;20032;-95
2022/09/07 22:25:51;;;;;;;13.52;8.55;;;;;;;;;;4891571;29;20047;-92
2022/09/07 22:28:17;;;;;;;13.20;10.48;;;;;;;;;;4879516;29;20037;-96
2022/09/07 22:30:44;;;;;;;12.45;9.43;;;;;;;;;;4951540;23;20056;-93
2022/09/07 22:33:32;;;;;;;11.05;8.32;;;;;;;;;;4890802;29;20331;-93
2022/09/07 22:36:14;;;;;;;12.32;8.75;;;;;;;;;;5079514;23;20060;-95
2022/09/07 22:38:40;;;;;;;13.93;10.30;;;;;;;;;;4891565;29;20036;-94
2022/09/07 22:41:17;;;;;;;13.15;9.15;;;;;;;;;;4893642;29;20033;-91
2022/09/07 22:44:09;;;;;;;15.48;9.80;;;;;;;;;;4897498;29;20397;-93
2022/09/07 22:46:36;;;;;;;13.73;10.13;;;;;;;;;;4880581;29;20025;-92
2022/09/07 22:49:04;;;;;;;15.05;9.93;;;;;;;;;;4889941;29;20033;-92
2022/09/07 22:51:30;;;;;;;15.50;9.80;;;;;;;;;;4920435;23;20056;-93
2022/09/07 22:53:56;;;;;;;15.07;9.57;;;;;;;;;;4887238;29;20047;-91
2022/09/07 22:56:25;;;;;;;14.13;9.95;;;;;;;;;;4893323;29;20032;-92
2022/09/07 22:58:53;;;;;;;11.50;9.30;;;;;;;;;;4889352;29;20043;-93
2022/09/07 23:01:21;;;;;;;15.48;9.90;;;;;;;;;;4888770;29;20024;-90
2022/09/07 23:03:52;;;;;;;11.27;8.93;;;;;;;;;;4907136;29;20482;-96
2022/09/07 23:06:27;;;;;;;14.23;9.07;;;;;;;;;;4895343;29;20024;-93
2022/09/07 23:09:03;;;;;;;13.05;9.32;;;;;;;;;;4893526;29;20040;-92
2022/09/07 23:11:29;;;;;;;19.77;10.30;;;;;;;;;;4889209;29;20084;-91
2022/09/07 23:13:59;;;;;;;12.35;8.95;;;;;;;;;;4892322;29;20069;-92
2022/09/07 23:16:26;;;;;;;13.93;9.75;;;;;;;;;;4887601;29;20028;-93
2022/09/07 23:18:53;;;;;;;17.27;9.98;;;;;;;;;;4886568;29;20044;-94
2022/09/07 23:21:29;;;;;;;17.70;9.50;;;;;;;;;;4969214;23;20052;-93
2022/09/07 23:24:01;;;;;;;12.15;9.38;;;;;;;;;;4908124;29;20044;-93
2022/09/07 23:26:51;;;;;;;13.65;9.93;;;;;;;;;;4896412;29;20044;-93
2022/09/07 23:29:19;;;;;;;12.82;9.65;;;;;;;;;;4893660;29;20040;-92
2022/09/07 23:31:49;;;;;;;12.38;9.30;;;;;;;;;;4895239;29;20036;-95
2022/09/07 23:34:15;;;;;;;15.38;11.27;;;;;;;;;;4907292;29;20178;-94
2022/09/07 23:36:41;;;;;;;20.98;10.23;;;;;;;;;;4891527;29;20020;-93
2022/09/07 23:39:25;;;;;;;12.93;9.85;;;;;;;;;;4945590;23;20105;-96
2022/09/07 23:41:51;;;;;;;12.90;9.18;;;;;;;;;;4892835;29;20115;-94
2022/09/07 23:44:26;;;;;;;13.68;10.38;;;;;;;;;;4890788;29;20032;-94
2022/09/07 23:46:52;;;;;;;14.40;11.05;;;;;;;;;;4890109;29;20025;-93
2022/09/07 23:49:18;;;;;;;16.77;10.50;;;;;;;;;;4889078;29;20035;-93
2022/09/07 23:51:45;;;;;;;13.88;10.68;;;;;;;;;;4888603;29;20067;-92
2022/09/07 23:54:14;;;;;;;14.18;10.57;;;;;;;;;;4890621;29;20009;-91
2022/09/07 23:56:43;;;;;;;17.55;12.80;;;;;;;;;;4925927;23;20043;-90
2022/09/07 23:59:12;;;;;;;19.27;12.20;;;;;;;;;;4940285;23;20043;-93
